sensor_id;sensor_type;location;lat;lon;timestamp;P1;durP1;ratioP1;P2;durP2;ratioP2
70049;SDS011;57391;51.306;22.680;2023-05-10T00:00:02;11.80;;;4.60;;
70049;SDS011;57391;51.306;22.680;2023-05-10T00:02:59;10.80;;;4.30;;
70049;SDS011;57391;51.306;22.680;2023-05-10T00:05:26;9.80;;;4.70;;
70049;SDS011;57391;51.306;22.680;2023-05-10T00:07:54;11.70;;;4.80;;
70049;SDS011;57391;51.306;22.680;2023-05-10T00:10:23;9.70;;;4.50;;
70049;SDS011;57391;51.306;22.680;2023-05-10T00:12:50;11.20;;;4.80;;
70049;SDS011;57391;51.306;22.680;2023-05-10T00:15:17;11.20;;;4.60;;
70049;SDS011;57391;51.306;22.680;2023-05-10T00:17:47;10.20;;;4.40;;
70049;SDS011;57391;51.306;22.680;2023-05-10T00:20:14;9.90;;;4.90;;
70049;SDS011;57391;51.306;22.680;2023-05-10T00:22:41;11.00;;;4.80;;
70049;SDS011;57391;51.306;22.680;2023-05-10T00:25:09;10.80;;;4.70;;
70049;SDS011;57391;51.306;22.680;2023-05-10T00:27:37;9.50;;;4.00;;
70049;SDS011;57391;51.306;22.680;2023-05-10T00:30:04;9.20;;;4.60;;
70049;SDS011;57391;51.306;22.680;2023-05-10T00:32:33;9.00;;;4.30;;
70049;SDS011;57391;51.306;22.680;2023-05-10T00:35:00;11.50;;;4.90;;
70049;SDS011;57391;51.306;22.680;2023-05-10T00:37:27;8.90;;;4.30;;
70049;SDS011;57391;51.306;22.680;2023-05-10T00:39:58;12.00;;;5.00;;
70049;SDS011;57391;51.306;22.680;2023-05-10T00:42:25;9.90;;;4.50;;
70049;SDS011;57391;51.306;22.680;2023-05-10T00:44:53;11.10;;;4.50;;
70049;SDS011;57391;51.306;22.680;2023-05-10T00:47:21;11.30;;;4.80;;
70049;SDS011;57391;51.306;22.680;2023-05-10T00:49:48;10.50;;;4.70;;
70049;SDS011;57391;51.306;22.680;2023-05-10T00:52:16;11.90;;;4.90;;
70049;SDS011;57391;51.306;22.680;2023-05-10T00:54:44;11.30;;;4.70;;
70049;SDS011;57391;51.306;22.680;2023-05-10T00:57:11;10.00;;;4.40;;
70049;SDS011;57391;51.306;22.680;2023-05-10T00:59:38;10.30;;;4.60;;
70049;SDS011;57391;51.306;22.680;2023-05-10T01:02:06;10.20;;;4.50;;
70049;SDS011;57391;51.306;22.680;2023-05-10T01:04:35;10.30;;;4.60;;
70049;SDS011;57391;51.306;22.680;2023-05-10T01:07:03;10.30;;;4.60;;
70049;SDS011;57391;51.306;22.680;2023-05-10T01:09:30;11.40;;;4.80;;
70049;SDS011;57391;51.306;22.680;2023-05-10T01:12:00;10.70;;;5.30;;
70049;SDS011;57391;51.306;22.680;2023-05-10T01:14:30;12.10;;;5.10;;
70049;SDS011;57391;51.306;22.680;2023-05-10T01:16:57;12.60;;;5.10;;
70049;SDS011;57391;51.306;22.680;2023-05-10T01:19:29;10.10;;;4.90;;
70049;SDS011;57391;51.306;22.680;2023-05-10T01:22:13;10.80;;;5.10;;
70049;SDS011;57391;51.306;22.680;2023-05-10T01:34:16;12.20;;;5.00;;
70049;SDS011;57391;51.306;22.680;2023-05-10T01:36:49;8.50;;;4.20;;
70049;SDS011;57391;51.306;22.680;2023-05-10T01:40:06;9.00;;;4.30;;
70049;SDS011;57391;51.306;22.680;2023-05-10T01:42:47;9.60;;;4.50;;
70049;SDS011;57391;51.306;22.680;2023-05-10T01:45:33;10.50;;;4.60;;
70049;SDS011;57391;51.306;22.680;2023-05-10T01:48:08;9.10;;;3.90;;
70049;SDS011;57391;51.306;22.680;2023-05-10T01:50:39;9.00;;;4.00;;
70049;SDS011;57391;51.306;22.680;2023-05-10T01:53:12;8.40;;;4.10;;
70049;SDS011;57391;51.306;22.680;2023-05-10T01:55:48;10.00;;;4.30;;
70049;SDS011;57391;51.306;22.680;2023-05-10T01:58:39;9.20;;;3.90;;
70049;SDS011;57391;51.306;22.680;2023-05-10T02:01:12;8.30;;;3.90;;
70049;SDS011;57391;51.306;22.680;2023-05-10T02:03:42;8.00;;;4.00;;
70049;SDS011;57391;51.306;22.680;2023-05-10T02:06:12;8.90;;;4.50;;
70049;SDS011;57391;51.306;22.680;2023-05-10T02:08:43;9.20;;;4.40;;
70049;SDS011;57391;51.306;22.680;2023-05-10T02:11:13;8.70;;;4.20;;
70049;SDS011;57391;51.306;22.680;2023-05-10T02:13:42;8.80;;;4.20;;
70049;SDS011;57391;51.306;22.680;2023-05-10T02:16:12;9.40;;;4.50;;
70049;SDS011;57391;51.306;22.680;2023-05-10T02:18:42;8.50;;;4.40;;
70049;SDS011;57391;51.306;22.680;2023-05-10T02:21:10;10.90;;;4.30;;
70049;SDS011;57391;51.306;22.680;2023-05-10T02:23:39;9.60;;;3.90;;
70049;SDS011;57391;51.306;22.680;2023-05-10T02:26:07;8.70;;;4.20;;
70049;SDS011;57391;51.306;22.680;2023-05-10T02:28:37;8.60;;;3.80;;
70049;SDS011;57391;51.306;22.680;2023-05-10T02:31:05;9.60;;;4.30;;
70049;SDS011;57391;51.306;22.680;2023-05-10T02:33:35;8.40;;;3.90;;
70049;SDS011;57391;51.306;22.680;2023-05-10T02:36:05;10.40;;;4.10;;
70049;SDS011;57391;51.306;22.680;2023-05-10T02:38:34;9.20;;;3.70;;
70049;SDS011;57391;51.306;22.680;2023-05-10T02:41:04;8.20;;;4.10;;
70049;SDS011;57391;51.306;22.680;2023-05-10T02:43:35;7.90;;;3.60;;
70049;SDS011;57391;51.306;22.680;2023-05-10T02:46:04;9.50;;;4.40;;
70049;SDS011;57391;51.306;22.680;2023-05-10T02:48:31;9.40;;;4.40;;
70049;SDS011;57391;51.306;22.680;2023-05-10T02:51:04;8.10;;;4.00;;
70049;SDS011;57391;51.306;22.680;2023-05-10T02:53:35;7.30;;;3.70;;
70049;SDS011;57391;51.306;22.680;2023-05-10T02:56:11;8.70;;;3.80;;
70049;SDS011;57391;51.306;22.680;2023-05-10T02:58:42;7.80;;;3.70;;
70049;SDS011;57391;51.306;22.680;2023-05-10T03:01:09;7.30;;;3.80;;
70049;SDS011;57391;51.306;22.680;2023-05-10T03:03:36;7.80;;;3.90;;
70049;SDS011;57391;51.306;22.680;2023-05-10T03:06:04;9.00;;;4.30;;
70049;SDS011;57391;51.306;22.680;2023-05-10T03:08:31;8.90;;;3.70;;
70049;SDS011;57391;51.306;22.680;2023-05-10T03:17:50;6.80;;;3.50;;
70049;SDS011;57391;51.306;22.680;2023-05-10T03:20:26;8.00;;;3.90;;
70049;SDS011;57391;51.306;22.680;2023-05-10T03:23:12;7.80;;;3.60;;
70049;SDS011;57391;51.306;22.680;2023-05-10T03:25:48;7.60;;;4.20;;
70049;SDS011;57391;51.306;22.680;2023-05-10T03:28:20;8.40;;;3.70;;
70049;SDS011;57391;51.306;22.680;2023-05-10T03:30:55;9.70;;;4.00;;
70049;SDS011;57391;51.306;22.680;2023-05-10T03:33:23;8.80;;;3.70;;
70049;SDS011;57391;51.306;22.680;2023-05-10T03:35:50;7.20;;;3.50;;
70049;SDS011;57391;51.306;22.680;2023-05-10T03:38:17;7.90;;;3.60;;
70049;SDS011;57391;51.306;22.680;2023-05-10T03:40:47;7.50;;;3.60;;
70049;SDS011;57391;51.306;22.680;2023-05-10T03:43:14;7.10;;;3.70;;
70049;SDS011;57391;51.306;22.680;2023-05-10T03:45:42;9.50;;;4.00;;
70049;SDS011;57391;51.306;22.680;2023-05-10T03:48:09;8.70;;;3.70;;
70049;SDS011;57391;51.306;22.680;2023-05-10T03:50:37;9.10;;;3.50;;
70049;SDS011;57391;51.306;22.680;2023-05-10T03:53:04;7.40;;;3.40;;
70049;SDS011;57391;51.306;22.680;2023-05-10T03:55:31;9.20;;;3.50;;
70049;SDS011;57391;51.306;22.680;2023-05-10T03:58:01;8.30;;;3.70;;
70049;SDS011;57391;51.306;22.680;2023-05-10T04:00:28;8.40;;;3.70;;
70049;SDS011;57391;51.306;22.680;2023-05-10T04:02:55;5.70;;;3.30;;
70049;SDS011;57391;51.306;22.680;2023-05-10T04:05:23;5.90;;;3.40;;
70049;SDS011;57391;51.306;22.680;2023-05-10T04:07:52;6.90;;;3.40;;
70049;SDS011;57391;51.306;22.680;2023-05-10T04:10:19;7.70;;;3.30;;
70049;SDS011;57391;51.306;22.680;2023-05-10T04:12:47;6.40;;;3.10;;
70049;SDS011;57391;51.306;22.680;2023-05-10T04:15:14;6.40;;;3.90;;
70049;SDS011;57391;51.306;22.680;2023-05-10T04:17:41;6.60;;;3.10;;
70049;SDS011;57391;51.306;22.680;2023-05-10T04:20:09;7.40;;;3.30;;
70049;SDS011;57391;51.306;22.680;2023-05-10T04:22:37;6.20;;;3.50;;
70049;SDS011;57391;51.306;22.680;2023-05-10T04:25:05;6.40;;;3.10;;
70049;SDS011;57391;51.306;22.680;2023-05-10T04:27:33;5.80;;;3.20;;
70049;SDS011;57391;51.306;22.680;2023-05-10T04:30:03;6.50;;;3.10;;
70049;SDS011;57391;51.306;22.680;2023-05-10T04:32:31;7.60;;;3.40;;
70049;SDS011;57391;51.306;22.680;2023-05-10T04:34:58;5.90;;;3.20;;
70049;SDS011;57391;51.306;22.680;2023-05-10T04:37:25;5.20;;;2.80;;
70049;SDS011;57391;51.306;22.680;2023-05-10T04:39:53;7.30;;;3.50;;
70049;SDS011;57391;51.306;22.680;2023-05-10T04:42:20;6.00;;;3.10;;
70049;SDS011;57391;51.306;22.680;2023-05-10T04:44:47;5.50;;;3.00;;
70049;SDS011;57391;51.306;22.680;2023-05-10T04:47:14;5.60;;;3.10;;
70049;SDS011;57391;51.306;22.680;2023-05-10T04:49:43;7.00;;;3.30;;
70049;SDS011;57391;51.306;22.680;2023-05-10T04:52:10;8.40;;;3.20;;
70049;SDS011;57391;51.306;22.680;2023-05-10T04:54:38;6.80;;;3.40;;
70049;SDS011;57391;51.306;22.680;2023-05-10T04:57:05;5.90;;;3.20;;
70049;SDS011;57391;51.306;22.680;2023-05-10T04:59:32;6.00;;;3.10;;
70049;SDS011;57391;51.306;22.680;2023-05-10T05:02:02;7.50;;;3.40;;
70049;SDS011;57391;51.306;22.680;2023-05-10T05:04:30;7.20;;;3.80;;
70049;SDS011;57391;51.306;22.680;2023-05-10T05:06:58;6.60;;;3.20;;
70049;SDS011;57391;51.306;22.680;2023-05-10T05:09:25;6.00;;;3.30;;
70049;SDS011;57391;51.306;22.680;2023-05-10T05:11:52;9.60;;;3.20;;
70049;SDS011;57391;51.306;22.680;2023-05-10T05:14:19;5.90;;;3.40;;
70049;SDS011;57391;51.306;22.680;2023-05-10T05:16:47;5.80;;;3.00;;
70049;SDS011;57391;51.306;22.680;2023-05-10T05:19:15;6.30;;;3.30;;
70049;SDS011;57391;51.306;22.680;2023-05-10T05:21:42;7.20;;;3.10;;
70049;SDS011;57391;51.306;22.680;2023-05-10T05:24:09;6.00;;;3.30;;
70049;SDS011;57391;51.306;22.680;2023-05-10T05:26:37;7.10;;;2.90;;
70049;SDS011;57391;51.306;22.680;2023-05-10T05:29:04;6.30;;;3.30;;
70049;SDS011;57391;51.306;22.680;2023-05-10T05:31:31;5.30;;;3.00;;
70049;SDS011;57391;51.306;22.680;2023-05-10T05:33:58;7.30;;;3.60;;
70049;SDS011;57391;51.306;22.680;2023-05-10T05:36:26;7.40;;;3.70;;
70049;SDS011;57391;51.306;22.680;2023-05-10T05:38:53;6.30;;;3.40;;
70049;SDS011;57391;51.306;22.680;2023-05-10T05:41:25;7.30;;;3.00;;
70049;SDS011;57391;51.306;22.680;2023-05-10T05:43:52;6.20;;;3.70;;
70049;SDS011;57391;51.306;22.680;2023-05-10T05:46:19;6.60;;;2.90;;
70049;SDS011;57391;51.306;22.680;2023-05-10T05:48:46;8.70;;;3.90;;
70049;SDS011;57391;51.306;22.680;2023-05-10T05:51:13;6.70;;;3.40;;
70049;SDS011;57391;51.306;22.680;2023-05-10T05:53:40;6.40;;;3.20;;
70049;SDS011;57391;51.306;22.680;2023-05-10T05:56:11;6.60;;;2.80;;
70049;SDS011;57391;51.306;22.680;2023-05-10T05:58:50;7.60;;;3.20;;
70049;SDS011;57391;51.306;22.680;2023-05-10T06:01:18;5.70;;;2.80;;
70049;SDS011;57391;51.306;22.680;2023-05-10T06:03:45;6.60;;;3.00;;
70049;SDS011;57391;51.306;22.680;2023-05-10T06:06:12;9.10;;;3.30;;
70049;SDS011;57391;51.306;22.680;2023-05-10T06:08:40;6.70;;;2.90;;
70049;SDS011;57391;51.306;22.680;2023-05-10T06:11:07;5.90;;;2.70;;
70049;SDS011;57391;51.306;22.680;2023-05-10T06:13:34;5.80;;;2.60;;
70049;SDS011;57391;51.306;22.680;2023-05-10T06:16:03;5.70;;;3.00;;
70049;SDS011;57391;51.306;22.680;2023-05-10T06:18:30;7.10;;;3.10;;
70049;SDS011;57391;51.306;22.680;2023-05-10T06:20:57;7.10;;;3.30;;
70049;SDS011;57391;51.306;22.680;2023-05-10T06:23:24;9.20;;;3.30;;
70049;SDS011;57391;51.306;22.680;2023-05-10T06:25:52;6.90;;;2.60;;
70049;SDS011;57391;51.306;22.680;2023-05-10T06:28:19;7.90;;;2.20;;
70049;SDS011;57391;51.306;22.680;2023-05-10T06:30:46;5.50;;;2.40;;
70049;SDS011;57391;51.306;22.680;2023-05-10T06:33:14;9.10;;;2.80;;
70049;SDS011;57391;51.306;22.680;2023-05-10T06:35:42;9.30;;;3.10;;
70049;SDS011;57391;51.306;22.680;2023-05-10T06:38:10;9.50;;;2.70;;
70049;SDS011;57391;51.306;22.680;2023-05-10T06:40:41;7.10;;;2.70;;
70049;SDS011;57391;51.306;22.680;2023-05-10T06:43:09;7.50;;;2.90;;
70049;SDS011;57391;51.306;22.680;2023-05-10T06:45:36;6.00;;;2.60;;
70049;SDS011;57391;51.306;22.680;2023-05-10T06:48:04;10.60;;;3.00;;
70049;SDS011;57391;51.306;22.680;2023-05-10T06:50:32;8.00;;;2.70;;
70049;SDS011;57391;51.306;22.680;2023-05-10T06:53:02;8.50;;;3.30;;
70049;SDS011;57391;51.306;22.680;2023-05-10T06:55:29;9.20;;;2.50;;
70049;SDS011;57391;51.306;22.680;2023-05-10T06:57:57;8.70;;;3.10;;
70049;SDS011;57391;51.306;22.680;2023-05-10T07:08:20;6.80;;;2.90;;
70049;SDS011;57391;51.306;22.680;2023-05-10T07:10:48;7.30;;;2.70;;
70049;SDS011;57391;51.306;22.680;2023-05-10T07:13:15;12.20;;;2.90;;
70049;SDS011;57391;51.306;22.680;2023-05-10T07:15:42;11.00;;;3.20;;
70049;SDS011;57391;51.306;22.680;2023-05-10T07:18:09;7.40;;;2.70;;
70049;SDS011;57391;51.306;22.680;2023-05-10T07:20:36;8.10;;;3.20;;
70049;SDS011;57391;51.306;22.680;2023-05-10T07:23:03;10.60;;;3.40;;
70049;SDS011;57391;51.306;22.680;2023-05-10T07:25:30;7.20;;;2.80;;
70049;SDS011;57391;51.306;22.680;2023-05-10T07:27:57;9.30;;;2.70;;
70049;SDS011;57391;51.306;22.680;2023-05-10T07:30:25;12.10;;;3.10;;
70049;SDS011;57391;51.306;22.680;2023-05-10T07:32:52;12.70;;;3.20;;
70049;SDS011;57391;51.306;22.680;2023-05-10T07:35:19;14.20;;;3.40;;
70049;SDS011;57391;51.306;22.680;2023-05-10T07:37:46;12.80;;;3.00;;
70049;SDS011;57391;51.306;22.680;2023-05-10T07:40:13;9.10;;;2.90;;
70049;SDS011;57391;51.306;22.680;2023-05-10T07:42:40;9.30;;;2.80;;
70049;SDS011;57391;51.306;22.680;2023-05-10T07:45:08;7.20;;;2.60;;
70049;SDS011;57391;51.306;22.680;2023-05-10T07:47:35;5.50;;;2.20;;
70049;SDS011;57391;51.306;22.680;2023-05-10T07:50:02;8.00;;;2.40;;
70049;SDS011;57391;51.306;22.680;2023-05-10T07:52:30;6.20;;;2.60;;
70049;SDS011;57391;51.306;22.680;2023-05-10T07:54:57;6.90;;;2.60;;
70049;SDS011;57391;51.306;22.680;2023-05-10T07:57:24;6.00;;;2.70;;
70049;SDS011;57391;51.306;22.680;2023-05-10T07:59:51;4.90;;;2.20;;
70049;SDS011;57391;51.306;22.680;2023-05-10T08:02:18;5.00;;;2.10;;
70049;SDS011;57391;51.306;22.680;2023-05-10T08:04:45;4.70;;;2.00;;
70049;SDS011;57391;51.306;22.680;2023-05-10T08:07:12;5.40;;;2.00;;
70049;SDS011;57391;51.306;22.680;2023-05-10T08:09:40;3.70;;;1.70;;
70049;SDS011;57391;51.306;22.680;2023-05-10T08:12:07;5.40;;;2.00;;
70049;SDS011;57391;51.306;22.680;2023-05-10T08:14:34;4.10;;;1.60;;
70049;SDS011;57391;51.306;22.680;2023-05-10T08:17:03;4.20;;;2.20;;
70049;SDS011;57391;51.306;22.680;2023-05-10T08:19:30;4.20;;;1.80;;
70049;SDS011;57391;51.306;22.680;2023-05-10T08:21:58;4.40;;;2.00;;
70049;SDS011;57391;51.306;22.680;2023-05-10T08:24:25;3.00;;;1.90;;
70049;SDS011;57391;51.306;22.680;2023-05-10T08:26:52;4.70;;;2.20;;
70049;SDS011;57391;51.306;22.680;2023-05-10T08:29:19;4.60;;;2.10;;
70049;SDS011;57391;51.306;22.680;2023-05-10T08:31:47;6.50;;;1.80;;
70049;SDS011;57391;51.306;22.680;2023-05-10T08:34:14;4.10;;;1.80;;
70049;SDS011;57391;51.306;22.680;2023-05-10T08:36:41;5.10;;;2.00;;
70049;SDS011;57391;51.306;22.680;2023-05-10T08:39:08;3.60;;;1.80;;
70049;SDS011;57391;51.306;22.680;2023-05-10T08:41:39;3.90;;;1.80;;
70049;SDS011;57391;51.306;22.680;2023-05-10T08:44:08;5.20;;;2.00;;
70049;SDS011;57391;51.306;22.680;2023-05-10T08:46:36;3.50;;;1.90;;
70049;SDS011;57391;51.306;22.680;2023-05-10T08:49:07;5.80;;;2.30;;
70049;SDS011;57391;51.306;22.680;2023-05-10T08:51:36;3.80;;;1.70;;
70049;SDS011;57391;51.306;22.680;2023-05-10T08:54:10;4.60;;;1.90;;
70049;SDS011;57391;51.306;22.680;2023-05-10T08:56:38;5.20;;;1.90;;
70049;SDS011;57391;51.306;22.680;2023-05-10T08:59:05;4.40;;;2.00;;
70049;SDS011;57391;51.306;22.680;2023-05-10T09:01:35;5.90;;;1.70;;
70049;SDS011;57391;51.306;22.680;2023-05-10T09:04:03;3.70;;;2.00;;
70049;SDS011;57391;51.306;22.680;2023-05-10T09:06:31;4.40;;;1.90;;
70049;SDS011;57391;51.306;22.680;2023-05-10T09:08:59;5.40;;;2.20;;
70049;SDS011;57391;51.306;22.680;2023-05-10T09:11:28;3.80;;;1.90;;
70049;SDS011;57391;51.306;22.680;2023-05-10T09:13:56;4.00;;;1.80;;
70049;SDS011;57391;51.306;22.680;2023-05-10T09:16:23;4.90;;;2.00;;
70049;SDS011;57391;51.306;22.680;2023-05-10T09:18:51;3.20;;;1.80;;
70049;SDS011;57391;51.306;22.680;2023-05-10T09:21:19;3.80;;;1.90;;
70049;SDS011;57391;51.306;22.680;2023-05-10T09:23:47;5.60;;;2.20;;
70049;SDS011;57391;51.306;22.680;2023-05-10T09:26:16;4.00;;;1.90;;
70049;SDS011;57391;51.306;22.680;2023-05-10T09:28:51;3.90;;;1.90;;
70049;SDS011;57391;51.306;22.680;2023-05-10T09:31:24;4.80;;;1.80;;
70049;SDS011;57391;51.306;22.680;2023-05-10T09:33:53;3.40;;;1.60;;
70049;SDS011;57391;51.306;22.680;2023-05-10T09:36:20;3.20;;;1.60;;
70049;SDS011;57391;51.306;22.680;2023-05-10T09:38:53;3.50;;;1.80;;
70049;SDS011;57391;51.306;22.680;2023-05-10T09:41:24;4.10;;;2.00;;
70049;SDS011;57391;51.306;22.680;2023-05-10T09:43:55;5.50;;;1.90;;
70049;SDS011;57391;51.306;22.680;2023-05-10T09:46:22;4.60;;;1.70;;
70049;SDS011;57391;51.306;22.680;2023-05-10T09:48:50;4.10;;;1.80;;
70049;SDS011;57391;51.306;22.680;2023-05-10T09:51:22;3.10;;;1.80;;
70049;SDS011;57391;51.306;22.680;2023-05-10T09:54:14;4.90;;;2.10;;
70049;SDS011;57391;51.306;22.680;2023-05-10T09:56:43;5.80;;;2.10;;
70049;SDS011;57391;51.306;22.680;2023-05-10T09:59:11;4.80;;;2.20;;
70049;SDS011;57391;51.306;22.680;2023-05-10T10:01:39;5.50;;;1.90;;
70049;SDS011;57391;51.306;22.680;2023-05-10T10:04:09;4.20;;;2.10;;
70049;SDS011;57391;51.306;22.680;2023-05-10T10:06:38;3.40;;;1.80;;
70049;SDS011;57391;51.306;22.680;2023-05-10T10:09:07;3.10;;;1.70;;
70049;SDS011;57391;51.306;22.680;2023-05-10T10:11:37;4.80;;;2.10;;
70049;SDS011;57391;51.306;22.680;2023-05-10T10:14:05;3.90;;;1.60;;
70049;SDS011;57391;51.306;22.680;2023-05-10T10:16:32;3.70;;;1.80;;
70049;SDS011;57391;51.306;22.680;2023-05-10T10:19:00;4.20;;;1.90;;
70049;SDS011;57391;51.306;22.680;2023-05-10T10:21:27;3.80;;;1.70;;
70049;SDS011;57391;51.306;22.680;2023-05-10T10:23:54;5.10;;;2.10;;
70049;SDS011;57391;51.306;22.680;2023-05-10T10:26:22;3.60;;;1.90;;
70049;SDS011;57391;51.306;22.680;2023-05-10T10:32:18;4.80;;;1.90;;
70049;SDS011;57391;51.306;22.680;2023-05-10T10:34:52;4.50;;;1.90;;
70049;SDS011;57391;51.306;22.680;2023-05-10T10:37:21;5.00;;;1.70;;
70049;SDS011;57391;51.306;22.680;2023-05-10T10:39:49;5.30;;;1.90;;
70049;SDS011;57391;51.306;22.680;2023-05-10T10:42:46;4.40;;;2.10;;
70049;SDS011;57391;51.306;22.680;2023-05-10T10:45:14;4.40;;;1.70;;
70049;SDS011;57391;51.306;22.680;2023-05-10T10:47:41;4.20;;;1.80;;
70049;SDS011;57391;51.306;22.680;2023-05-10T10:50:10;5.30;;;1.90;;
70049;SDS011;57391;51.306;22.680;2023-05-10T10:52:43;3.60;;;1.60;;
70049;SDS011;57391;51.306;22.680;2023-05-10T10:57:51;5.20;;;2.10;;
70049;SDS011;57391;51.306;22.680;2023-05-10T11:00:27;4.00;;;2.10;;
70049;SDS011;57391;51.306;22.680;2023-05-10T11:03:05;3.80;;;1.80;;
70049;SDS011;57391;51.306;22.680;2023-05-10T11:05:47;4.30;;;1.80;;
70049;SDS011;57391;51.306;22.680;2023-05-10T11:08:18;2.40;;;1.40;;
70049;SDS011;57391;51.306;22.680;2023-05-10T11:13:42;5.20;;;2.00;;
70049;SDS011;57391;51.306;22.680;2023-05-10T11:16:18;2.60;;;1.50;;
70049;SDS011;57391;51.306;22.680;2023-05-10T11:19:01;3.30;;;1.60;;
70049;SDS011;57391;51.306;22.680;2023-05-10T11:21:36;7.00;;;1.90;;
70049;SDS011;57391;51.306;22.680;2023-05-10T11:24:31;4.00;;;2.00;;
70049;SDS011;57391;51.306;22.680;2023-05-10T11:27:00;5.30;;;1.80;;
70049;SDS011;57391;51.306;22.680;2023-05-10T11:29:28;3.20;;;1.90;;
70049;SDS011;57391;51.306;22.680;2023-05-10T11:31:57;4.40;;;2.10;;
70049;SDS011;57391;51.306;22.680;2023-05-10T11:34:28;4.20;;;1.60;;
70049;SDS011;57391;51.306;22.680;2023-05-10T11:36:57;4.90;;;1.80;;
70049;SDS011;57391;51.306;22.680;2023-05-10T11:39:30;4.90;;;1.70;;
70049;SDS011;57391;51.306;22.680;2023-05-10T11:41:58;3.00;;;1.60;;
70049;SDS011;57391;51.306;22.680;2023-05-10T11:44:32;4.30;;;1.70;;
70049;SDS011;57391;51.306;22.680;2023-05-10T11:47:05;3.40;;;1.70;;
70049;SDS011;57391;51.306;22.680;2023-05-10T11:49:35;4.70;;;1.50;;
70049;SDS011;57391;51.306;22.680;2023-05-10T11:52:04;5.50;;;1.80;;
70049;SDS011;57391;51.306;22.680;2023-05-10T11:54:57;3.50;;;1.50;;
70049;SDS011;57391;51.306;22.680;2023-05-10T11:57:26;3.10;;;1.50;;
70049;SDS011;57391;51.306;22.680;2023-05-10T11:59:59;6.10;;;1.70;;
70049;SDS011;57391;51.306;22.680;2023-05-10T12:02:53;3.80;;;1.90;;
70049;SDS011;57391;51.306;22.680;2023-05-10T12:05:20;6.00;;;2.60;;
70049;SDS011;57391;51.306;22.680;2023-05-10T12:07:48;5.60;;;2.40;;
70049;SDS011;57391;51.306;22.680;2023-05-10T12:10:15;4.10;;;2.10;;
70049;SDS011;57391;51.306;22.680;2023-05-10T12:12:45;3.40;;;1.60;;
70049;SDS011;57391;51.306;22.680;2023-05-10T12:15:22;4.00;;;1.70;;
70049;SDS011;57391;51.306;22.680;2023-05-10T12:18:09;3.10;;;1.80;;
70049;SDS011;57391;51.306;22.680;2023-05-10T12:20:38;6.10;;;2.00;;
70049;SDS011;57391;51.306;22.680;2023-05-10T12:23:08;3.20;;;1.50;;
70049;SDS011;57391;51.306;22.680;2023-05-10T12:25:37;3.10;;;1.50;;
70049;SDS011;57391;51.306;22.680;2023-05-10T12:28:08;2.90;;;1.60;;
70049;SDS011;57391;51.306;22.680;2023-05-10T12:30:37;4.90;;;1.80;;
70049;SDS011;57391;51.306;22.680;2023-05-10T12:33:11;2.80;;;1.50;;
70049;SDS011;57391;51.306;22.680;2023-05-10T12:35:49;4.10;;;1.50;;
70049;SDS011;57391;51.306;22.680;2023-05-10T12:38:35;3.20;;;1.50;;
70049;SDS011;57391;51.306;22.680;2023-05-10T12:41:07;4.60;;;1.60;;
70049;SDS011;57391;51.306;22.680;2023-05-10T12:43:36;3.10;;;1.50;;
70049;SDS011;57391;51.306;22.680;2023-05-10T12:46:13;3.20;;;1.50;;
70049;SDS011;57391;51.306;22.680;2023-05-10T12:48:42;2.50;;;1.50;;
70049;SDS011;57391;51.306;22.680;2023-05-10T12:51:10;4.40;;;1.60;;
70049;SDS011;57391;51.306;22.680;2023-05-10T12:53:39;3.70;;;1.60;;
70049;SDS011;57391;51.306;22.680;2023-05-10T12:56:07;3.90;;;1.80;;
70049;SDS011;57391;51.306;22.680;2023-05-10T12:58:34;3.40;;;1.40;;
70049;SDS011;57391;51.306;22.680;2023-05-10T13:01:02;4.80;;;1.60;;
70049;SDS011;57391;51.306;22.680;2023-05-10T13:03:32;3.90;;;1.60;;
70049;SDS011;57391;51.306;22.680;2023-05-10T13:05:59;3.60;;;1.50;;
70049;SDS011;57391;51.306;22.680;2023-05-10T13:08:26;3.50;;;1.60;;
70049;SDS011;57391;51.306;22.680;2023-05-10T13:10:56;4.50;;;1.80;;
70049;SDS011;57391;51.306;22.680;2023-05-10T13:13:23;2.90;;;1.50;;
70049;SDS011;57391;51.306;22.680;2023-05-10T13:15:50;3.40;;;1.50;;
70049;SDS011;57391;51.306;22.680;2023-05-10T13:18:17;3.30;;;1.80;;
70049;SDS011;57391;51.306;22.680;2023-05-10T13:20:45;4.30;;;1.90;;
70049;SDS011;57391;51.306;22.680;2023-05-10T13:23:12;3.80;;;1.80;;
70049;SDS011;57391;51.306;22.680;2023-05-10T13:25:39;3.00;;;1.50;;
70049;SDS011;57391;51.306;22.680;2023-05-10T13:28:07;2.80;;;1.50;;
70049;SDS011;57391;51.306;22.680;2023-05-10T13:30:34;2.80;;;1.50;;
70049;SDS011;57391;51.306;22.680;2023-05-10T13:33:01;2.90;;;1.70;;
70049;SDS011;57391;51.306;22.680;2023-05-10T13:35:29;3.40;;;1.60;;
70049;SDS011;57391;51.306;22.680;2023-05-10T13:37:56;4.40;;;1.80;;
70049;SDS011;57391;51.306;22.680;2023-05-10T13:40:24;3.00;;;1.60;;
70049;SDS011;57391;51.306;22.680;2023-05-10T13:42:51;4.40;;;1.80;;
70049;SDS011;57391;51.306;22.680;2023-05-10T13:45:19;5.90;;;1.80;;
70049;SDS011;57391;51.306;22.680;2023-05-10T13:47:47;4.70;;;1.70;;
70049;SDS011;57391;51.306;22.680;2023-05-10T13:50:14;3.90;;;1.60;;
70049;SDS011;57391;51.306;22.680;2023-05-10T13:52:42;3.70;;;1.60;;
70049;SDS011;57391;51.306;22.680;2023-05-10T13:55:09;3.80;;;1.70;;
70049;SDS011;57391;51.306;22.680;2023-05-10T13:57:38;4.30;;;1.90;;
70049;SDS011;57391;51.306;22.680;2023-05-10T14:00:07;4.80;;;1.50;;
70049;SDS011;57391;51.306;22.680;2023-05-10T14:02:37;4.40;;;1.80;;
70049;SDS011;57391;51.306;22.680;2023-05-10T14:05:05;5.50;;;1.80;;
70049;SDS011;57391;51.306;22.680;2023-05-10T14:07:32;6.00;;;1.70;;
70049;SDS011;57391;51.306;22.680;2023-05-10T14:10:00;4.00;;;1.70;;
70049;SDS011;57391;51.306;22.680;2023-05-10T14:12:27;4.30;;;1.80;;
70049;SDS011;57391;51.306;22.680;2023-05-10T14:14:55;3.60;;;2.00;;
70049;SDS011;57391;51.306;22.680;2023-05-10T14:17:24;4.10;;;1.80;;
70049;SDS011;57391;51.306;22.680;2023-05-10T14:19:52;4.10;;;1.70;;
70049;SDS011;57391;51.306;22.680;2023-05-10T14:22:20;3.60;;;1.60;;
70049;SDS011;57391;51.306;22.680;2023-05-10T14:24:47;2.30;;;1.40;;
70049;SDS011;57391;51.306;22.680;2023-05-10T14:27:15;3.50;;;1.70;;
70049;SDS011;57391;51.306;22.680;2023-05-10T14:29:42;4.30;;;1.70;;
70049;SDS011;57391;51.306;22.680;2023-05-10T14:32:09;3.00;;;1.40;;
70049;SDS011;57391;51.306;22.680;2023-05-10T14:34:37;4.20;;;1.50;;
70049;SDS011;57391;51.306;22.680;2023-05-10T14:37:04;3.30;;;1.60;;
70049;SDS011;57391;51.306;22.680;2023-05-10T14:39:31;2.50;;;1.30;;
70049;SDS011;57391;51.306;22.680;2023-05-10T14:42:00;5.10;;;1.60;;
70049;SDS011;57391;51.306;22.680;2023-05-10T14:44:27;5.10;;;1.90;;
70049;SDS011;57391;51.306;22.680;2023-05-10T14:46:54;3.90;;;1.80;;
70049;SDS011;57391;51.306;22.680;2023-05-10T14:49:23;3.40;;;1.40;;
70049;SDS011;57391;51.306;22.680;2023-05-10T14:51:52;3.80;;;1.60;;
70049;SDS011;57391;51.306;22.680;2023-05-10T14:54:20;2.60;;;1.50;;
70049;SDS011;57391;51.306;22.680;2023-05-10T14:56:47;3.80;;;1.70;;
70049;SDS011;57391;51.306;22.680;2023-05-10T14:59:16;3.10;;;1.50;;
70049;SDS011;57391;51.306;22.680;2023-05-10T15:01:43;2.60;;;1.40;;
70049;SDS011;57391;51.306;22.680;2023-05-10T15:04:11;2.90;;;1.50;;
70049;SDS011;57391;51.306;22.680;2023-05-10T15:06:40;3.60;;;1.50;;
70049;SDS011;57391;51.306;22.680;2023-05-10T15:09:07;4.20;;;1.60;;
70049;SDS011;57391;51.306;22.680;2023-05-10T15:11:38;2.90;;;1.40;;
70049;SDS011;57391;51.306;22.680;2023-05-10T15:14:05;4.00;;;1.90;;
70049;SDS011;57391;51.306;22.680;2023-05-10T15:16:33;2.40;;;1.40;;
70049;SDS011;57391;51.306;22.680;2023-05-10T15:19:00;3.90;;;1.90;;